createdAt,value
2023-04-15T00:01:53.728Z,90.40
2023-04-15T00:04:21.006Z,90.50
2023-04-15T00:06:55.347Z,90.30
2023-04-15T00:09:22.418Z,90.40
2023-04-15T00:11:51.341Z,90.40
2023-04-15T00:14:18.440Z,90.00
2023-04-15T00:16:45.485Z,89.90
2023-04-15T00:19:13.244Z,89.90
2023-04-15T00:21:40.273Z,90.10
2023-04-15T00:24:07.239Z,90.40
2023-04-15T00:26:34.281Z,90.70
2023-04-15T00:29:01.603Z,90.90
2023-04-15T00:31:28.893Z,90.80
2023-04-15T00:33:55.957Z,90.60
2023-04-15T00:36:23.510Z,90.60
2023-04-15T00:38:50.930Z,90.80
2023-04-15T00:41:19.412Z,91.20
2023-04-15T00:43:46.469Z,91.90
2023-04-15T00:46:16.129Z,92.60
2023-04-15T00:48:44.266Z,93.50
2023-04-15T00:51:11.351Z,94.20
2023-04-15T00:53:38.404Z,94.70
2023-04-15T00:56:06.691Z,94.80
2023-04-15T00:58:33.766Z,94.80
2023-04-15T01:01:01.108Z,94.90
2023-04-15T01:03:30.285Z,94.70
2023-04-15T01:06:01.571Z,94.70
2023-04-15T01:08:31.264Z,94.80
2023-04-15T01:11:02.324Z,94.70
2023-04-15T01:13:30.386Z,94.70
2023-04-15T01:15:58.107Z,94.70
2023-04-15T01:18:25.443Z,94.20
2023-04-15T01:20:52.390Z,93.80
2023-04-15T01:23:19.954Z,93.30
2023-04-15T01:25:47.657Z,93.10
2023-04-15T01:28:14.922Z,92.40
2023-04-15T01:30:42.343Z,92.30
2023-04-15T01:33:09.388Z,92.60
2023-04-15T01:35:36.528Z,92.90
2023-04-15T01:38:09.424Z,93.10
2023-04-15T01:40:37.963Z,93.20
2023-04-15T01:43:05.024Z,93.40
2023-04-15T01:45:34.181Z,93.70
2023-04-15T01:48:04.423Z,93.90
2023-04-15T01:50:31.629Z,94.10
2023-04-15T01:52:58.712Z,94.20
2023-04-15T01:55:26.314Z,94.50
2023-04-15T01:57:53.292Z,94.80
2023-04-15T02:00:22.441Z,94.80
2023-04-15T02:02:49.708Z,94.80
2023-04-15T02:05:16.800Z,94.80
2023-04-15T02:07:48.549Z,95.00
2023-04-15T02:10:16.877Z,95.00
2023-04-15T02:12:44.155Z,94.70
2023-04-15T02:15:11.745Z,94.40
2023-04-15T02:17:38.866Z,94.20
2023-04-15T02:20:06.540Z,93.80
2023-04-15T02:22:33.537Z,93.20
2023-04-15T02:25:00.612Z,93.00
2023-04-15T02:27:29.024Z,92.70
2023-04-15T02:29:56.028Z,92.50
2023-04-15T02:32:24.584Z,92.20
2023-04-15T02:34:51.897Z,92.00
2023-04-15T02:37:20.541Z,91.50
2023-04-15T02:39:47.920Z,91.50
2023-04-15T02:42:15.879Z,92.00
2023-04-15T02:44:43.728Z,91.90
2023-04-15T02:47:11.793Z,91.70
2023-04-15T02:49:41.976Z,91.60
2023-04-15T02:52:10.167Z,91.70
2023-04-15T02:54:37.393Z,91.90
2023-04-15T02:57:06.879Z,92.00
2023-04-15T02:59:34.056Z,92.20
2023-04-15T03:02:01.258Z,92.40
2023-04-15T03:04:30.291Z,92.40
2023-04-15T03:06:57.595Z,92.40
2023-04-15T03:09:25.371Z,92.20
2023-04-15T03:11:54.847Z,92.10
2023-04-15T03:14:22.537Z,92.10
2023-04-15T03:16:50.722Z,92.50
2023-04-15T03:19:18.354Z,92.60
2023-04-15T03:21:45.385Z,92.60
2023-04-15T03:24:12.718Z,92.60
2023-04-15T03:26:39.849Z,92.40
2023-04-15T03:29:12.305Z,92.40
2023-04-15T03:31:40.620Z,92.50
2023-04-15T03:34:07.660Z,92.30
2023-04-15T03:36:35.073Z,92.60
2023-04-15T03:39:04.728Z,92.60
2023-04-15T03:41:32.962Z,93.00
2023-04-15T03:44:00.114Z,93.00
2023-04-15T03:46:27.258Z,93.00
2023-04-15T03:48:54.239Z,93.00
2023-04-15T03:51:21.545Z,93.10
2023-04-15T03:53:48.520Z,92.90
2023-04-15T03:56:15.988Z,92.80
2023-04-15T03:58:43.054Z,92.80
2023-04-15T04:01:10.367Z,92.60
2023-04-15T04:03:38.042Z,92.50
2023-04-15T04:06:05.248Z,92.00
2023-04-15T04:08:32.374Z,91.70
2023-04-15T04:10:59.417Z,91.90
2023-04-15T04:13:26.551Z,91.80
2023-04-15T04:15:53.603Z,91.60
2023-04-15T04:18:20.777Z,91.70
2023-04-15T04:20:48.206Z,91.70
2023-04-15T04:23:15.205Z,91.80
2023-04-15T04:25:42.545Z,91.80
2023-04-15T04:28:09.654Z,91.90
2023-04-15T04:30:36.720Z,91.70
2023-04-15T04:33:03.939Z,91.60
2023-04-15T04:35:30.976Z,91.60
2023-04-15T04:38:02.049Z,91.70
2023-04-15T04:40:29.039Z,91.50
2023-04-15T04:42:56.109Z,91.50
2023-04-15T04:45:23.716Z,91.50
2023-04-15T04:47:50.829Z,91.60
2023-04-15T04:50:17.810Z,91.90
2023-04-15T04:52:44.853Z,91.90
2023-04-15T04:55:11.913Z,91.90
2023-04-15T04:57:39.809Z,92.00
2023-04-15T05:00:09.047Z,92.10
2023-04-15T05:02:36.252Z,92.30
2023-04-15T05:05:03.369Z,92.40
2023-04-15T05:07:30.630Z,92.50
2023-04-15T05:09:57.596Z,92.40
2023-04-15T05:12:29.254Z,92.20
2023-04-15T05:14:56.352Z,92.30
2023-04-15T05:17:23.394Z,92.50
2023-04-15T05:19:50.583Z,92.40
2023-04-15T05:22:17.544Z,92.60
2023-04-15T05:24:44.553Z,92.50
2023-04-15T05:27:11.929Z,92.10
2023-04-15T05:29:39.008Z,91.80
2023-04-15T05:32:06.718Z,91.80
2023-04-15T05:34:33.758Z,91.80
2023-04-15T05:37:00.852Z,92.10
2023-04-15T05:39:28.012Z,92.10
2023-04-15T05:41:54.974Z,91.00
2023-04-15T05:44:22.021Z,90.50
2023-04-15T05:46:48.958Z,90.60
2023-04-15T05:49:15.945Z,90.40
2023-04-15T05:51:42.893Z,90.10
2023-04-15T05:54:09.887Z,90.70
2023-04-15T05:56:37.113Z,91.30
2023-04-15T05:59:04.126Z,91.50
2023-04-15T06:01:31.326Z,91.80
2023-04-15T06:03:58.390Z,91.70
2023-04-15T06:06:25.433Z,91.90
2023-04-15T06:08:52.508Z,92.10
2023-04-15T06:11:22.171Z,92.50
2023-04-15T06:13:49.153Z,92.60
2023-04-15T06:16:16.183Z,92.90
2023-04-15T06:18:43.306Z,93.00
2023-04-15T06:21:10.676Z,93.00
2023-04-15T06:23:37.807Z,93.80
2023-04-15T06:26:04.873Z,93.90
2023-04-15T06:28:33.006Z,94.00
2023-04-15T06:31:01.572Z,94.10
2023-04-15T06:33:28.798Z,94.20
2023-04-15T06:35:55.743Z,94.40
2023-04-15T06:38:22.799Z,94.40
2023-04-15T06:40:49.830Z,94.60
2023-04-15T06:43:16.809Z,94.60
2023-04-15T06:45:44.894Z,93.90
2023-04-15T06:48:12.286Z,94.10
2023-04-15T06:50:39.374Z,94.30
2023-04-15T06:53:06.733Z,94.70
2023-04-15T06:55:34.490Z,94.00
2023-04-15T06:58:01.556Z,93.70
2023-04-15T07:00:28.915Z,92.80
2023-04-15T07:02:56.650Z,92.30
2023-04-15T07:05:25.480Z,92.10
2023-04-15T07:07:53.334Z,91.60
2023-04-15T07:10:20.614Z,91.40
2023-04-15T07:12:49.301Z,90.10
2023-04-15T07:15:16.651Z,88.50
2023-04-15T07:17:43.650Z,88.30
2023-04-15T07:20:13.108Z,87.30
2023-04-15T07:22:41.081Z,86.70
2023-04-15T07:25:09.054Z,86.30
2023-04-15T07:27:36.406Z,86.60
2023-04-15T07:30:03.667Z,86.00
2023-04-15T07:32:31.689Z,85.70
2023-04-15T07:35:03.851Z,85.00
2023-04-15T07:37:34.613Z,84.70
2023-04-15T07:40:01.998Z,84.30
2023-04-15T07:42:29.467Z,84.00
2023-04-15T07:44:58.109Z,83.50
2023-04-15T07:47:25.966Z,83.20
2023-04-15T07:49:53.342Z,83.80
2023-04-15T07:52:20.394Z,82.90
2023-04-15T07:54:47.422Z,82.00
2023-04-15T07:57:14.476Z,82.30
2023-04-15T07:59:42.099Z,81.60
2023-04-15T08:02:09.952Z,81.80
2023-04-15T08:04:37.601Z,81.60
2023-04-15T08:07:05.178Z,82.60
2023-04-15T08:09:32.159Z,81.20
2023-04-15T08:11:59.162Z,81.60
2023-04-15T08:14:26.384Z,81.00
2023-04-15T08:16:53.526Z,80.40
2023-04-15T08:19:20.763Z,80.20
2023-04-15T08:21:47.777Z,80.10
2023-04-15T08:24:15.751Z,80.20
2023-04-15T08:26:42.837Z,80.20
2023-04-15T08:29:09.877Z,79.70
2023-04-15T08:31:36.881Z,79.90
2023-04-15T08:34:03.951Z,81.20
2023-04-15T08:36:32.619Z,81.20
2023-04-15T08:39:02.328Z,81.90
2023-04-15T08:41:40.048Z,80.60
2023-04-15T08:44:07.638Z,81.50
2023-04-15T08:46:35.089Z,81.80
2023-04-15T08:49:05.294Z,82.70
2023-04-15T08:51:34.035Z,82.70
2023-04-15T08:54:03.872Z,81.80
2023-04-15T08:56:33.274Z,81.80
2023-04-15T08:59:02.267Z,80.10
2023-04-15T09:01:29.797Z,78.50
2023-04-15T09:03:57.682Z,80.00
2023-04-15T09:06:25.732Z,79.70
2023-04-15T09:08:54.911Z,80.40
2023-04-15T09:11:22.650Z,81.10
2023-04-15T09:13:49.895Z,81.60
2023-04-15T09:16:17.197Z,79.60
2023-04-15T09:18:44.394Z,76.70
2023-04-15T09:21:17.920Z,77.70
2023-04-15T09:24:01.990Z,78.40
2023-04-15T09:26:37.925Z,77.70
2023-04-15T09:29:09.842Z,76.90
2023-04-15T09:31:37.857Z,77.70
2023-04-15T09:34:05.927Z,76.90
2023-04-15T09:36:50.965Z,76.30
2023-04-15T09:39:18.281Z,75.60
2023-04-15T09:41:45.572Z,76.10
2023-04-15T09:44:26.128Z,75.60
2023-04-15T09:46:53.188Z,77.20
2023-04-15T09:49:21.387Z,76.40
2023-04-15T09:52:03.932Z,76.20
2023-04-15T09:54:38.934Z,76.40
2023-04-15T09:57:07.565Z,75.90
2023-04-15T09:59:34.616Z,76.30
2023-04-15T10:02:04.823Z,76.10
2023-04-15T10:04:36.607Z,76.80
2023-04-15T10:07:06.388Z,76.10
2023-04-15T10:09:34.952Z,75.20
2023-04-15T10:12:04.277Z,74.30
2023-04-15T10:14:38.730Z,75.20
2023-04-15T10:17:07.856Z,74.30
2023-04-15T10:19:38.205Z,73.50
2023-04-15T10:22:05.551Z,73.30
2023-04-15T10:24:33.309Z,72.80
2023-04-15T10:27:01.114Z,73.50
2023-04-15T10:29:28.629Z,72.20
2023-04-15T10:31:57.012Z,73.60
2023-04-15T10:34:25.782Z,72.80
2023-04-15T10:36:57.523Z,72.40
2023-04-15T10:39:34.325Z,73.30
2023-04-15T10:42:07.637Z,71.40
2023-04-15T10:44:37.876Z,72.00
2023-04-15T10:47:20.567Z,72.60
2023-04-15T10:49:50.501Z,73.80
2023-04-15T10:52:25.924Z,74.50
2023-04-15T10:55:04.692Z,74.90
2023-04-15T10:57:37.789Z,75.00
2023-04-15T11:00:18.862Z,76.00
2023-04-15T11:02:53.351Z,76.10
2023-04-15T11:05:22.319Z,76.60
2023-04-15T11:07:52.262Z,77.70
2023-04-15T11:10:31.352Z,77.80
2023-04-15T11:13:00.687Z,76.80
2023-04-15T11:15:41.181Z,76.40
2023-04-15T11:18:24.339Z,77.50
2023-04-15T11:20:54.985Z,76.80
2023-04-15T11:23:46.944Z,76.40
2023-04-15T11:26:14.264Z,76.40
2023-04-15T11:28:44.916Z,76.50
2023-04-15T11:31:18.056Z,75.80
2023-04-15T11:33:59.523Z,75.90
2023-04-15T11:36:28.238Z,76.60
2023-04-15T11:38:56.321Z,76.30
2023-04-15T11:41:26.702Z,75.20
2023-04-15T11:43:53.906Z,73.80
2023-04-15T11:46:22.899Z,74.00
2023-04-15T11:48:50.049Z,71.30
2023-04-15T11:51:17.097Z,71.60
2023-04-15T11:53:52.123Z,71.40
2023-04-15T11:56:24.004Z,68.80
2023-04-15T11:59:00.001Z,70.00
2023-04-15T12:01:39.972Z,69.80
2023-04-15T12:04:24.239Z,69.40
2023-04-15T12:06:52.357Z,69.30
2023-04-15T12:09:20.529Z,67.90
2023-04-15T12:11:49.372Z,67.40
2023-04-15T12:14:30.604Z,66.30
2023-04-15T12:17:00.600Z,66.30
2023-04-15T12:19:36.592Z,67.60
2023-04-15T12:22:10.501Z,67.90
2023-04-15T12:24:38.892Z,68.00
2023-04-15T12:27:11.457Z,69.80
2023-04-15T12:29:40.757Z,74.10
2023-04-15T12:32:15.911Z,76.10
2023-04-15T12:34:54.519Z,77.30
2023-04-15T12:37:21.976Z,77.80
2023-04-15T12:39:50.228Z,78.30
2023-04-15T12:42:17.857Z,75.10
2023-04-15T12:44:48.148Z,73.90
2023-04-15T12:47:15.455Z,74.50
2023-04-15T12:49:42.662Z,73.00
2023-04-15T12:52:09.734Z,69.70
2023-04-15T12:54:36.797Z,70.00
2023-04-15T12:57:06.846Z,70.00
2023-04-15T12:59:34.931Z,70.30
2023-04-15T13:02:03.042Z,72.50
2023-04-15T13:04:31.489Z,72.80
2023-04-15T13:06:58.978Z,73.90
2023-04-15T13:09:26.162Z,74.80
2023-04-15T13:11:54.524Z,75.10
2023-04-15T13:14:21.868Z,76.20
2023-04-15T13:16:48.919Z,74.90
2023-04-15T13:19:16.050Z,72.40
2023-04-15T13:21:43.114Z,72.40
2023-04-15T13:24:10.178Z,72.70
2023-04-15T13:26:37.976Z,72.50
2023-04-15T13:29:05.138Z,72.60
2023-04-15T13:31:32.280Z,72.80
2023-04-15T13:33:59.634Z,73.70
2023-04-15T13:36:27.514Z,74.20
2023-04-15T13:38:54.921Z,73.90
2023-04-15T13:41:22.224Z,73.40
2023-04-15T13:43:49.285Z,73.40
2023-04-15T13:46:16.789Z,74.40
2023-04-15T13:48:43.862Z,74.50
2023-04-15T13:51:10.954Z,75.00
2023-04-15T13:53:39.411Z,74.70
2023-04-15T13:56:08.479Z,74.80
2023-04-15T13:58:36.824Z,75.30
2023-04-15T14:01:05.952Z,75.20
2023-04-15T14:03:34.989Z,76.20
2023-04-15T14:06:02.555Z,77.40
2023-04-15T14:08:30.888Z,78.10
2023-04-15T14:10:57.960Z,78.50
2023-04-15T14:13:25.392Z,78.70
2023-04-15T14:15:52.497Z,78.50
2023-04-15T14:18:20.049Z,78.70
2023-04-15T14:20:47.210Z,79.80
2023-04-15T14:23:14.581Z,80.50
2023-04-15T14:25:41.768Z,80.40
2023-04-15T14:28:08.889Z,80.20
2023-04-15T14:30:36.054Z,79.80
2023-04-15T14:33:03.940Z,81.10
2023-04-15T14:35:31.509Z,81.30
2023-04-15T14:37:58.963Z,81.30
2023-04-15T14:40:26.085Z,81.70
2023-04-15T14:42:53.186Z,81.70
2023-04-15T14:45:20.237Z,81.70
2023-04-15T14:47:47.726Z,82.70
2023-04-15T14:50:21.154Z,83.80
2023-04-15T14:52:49.471Z,84.80
2023-04-15T14:55:16.630Z,86.80
2023-04-15T14:57:43.674Z,87.80
2023-04-15T15:00:13.740Z,89.20
2023-04-15T15:02:43.706Z,90.30
2023-04-15T15:05:12.212Z,91.50
2023-04-15T15:07:41.150Z,92.70
2023-04-15T15:10:08.589Z,93.10
2023-04-15T15:12:35.931Z,93.70
2023-04-15T15:15:12.301Z,93.70
2023-04-15T15:17:47.013Z,94.00
2023-04-15T15:20:14.124Z,94.20
2023-04-15T15:22:41.103Z,95.10
2023-04-15T15:25:08.233Z,95.20
2023-04-15T15:27:37.699Z,95.20
2023-04-15T15:30:07.014Z,95.70
2023-04-15T15:32:34.181Z,95.90
2023-04-15T15:35:01.370Z,96.10
2023-04-15T15:37:30.294Z,96.20
2023-04-15T15:39:57.495Z,96.50
2023-04-15T15:42:25.110Z,96.20
2023-04-15T15:44:53.001Z,96.70
2023-04-15T15:47:21.724Z,97.00
2023-04-15T15:49:48.839Z,98.00
2023-04-15T15:52:16.067Z,99.00
2023-04-15T15:54:43.202Z,99.30
2023-04-15T15:57:10.775Z,99.40
2023-04-15T15:59:43.683Z,99.90
2023-04-15T16:02:12.250Z,100.00
2023-04-15T16:04:39.915Z,100.00
2023-04-15T16:07:07.090Z,100.00
2023-04-15T16:09:34.650Z,99.90
2023-04-15T16:12:02.276Z,99.80
2023-04-15T16:14:34.535Z,99.80
2023-04-15T16:17:01.631Z,99.90
2023-04-15T16:19:28.749Z,99.80
2023-04-15T16:21:55.877Z,100.00
2023-04-15T16:24:23.006Z,100.00
2023-04-15T16:26:50.052Z,100.00
2023-04-15T16:29:17.093Z,100.00
2023-04-15T16:31:44.209Z,100.00
2023-04-15T16:34:11.644Z,100.00
2023-04-15T16:36:40.625Z,100.00
2023-04-15T16:39:07.910Z,100.00
2023-04-15T16:41:35.338Z,100.00
2023-04-15T16:44:03.487Z,100.00
2023-04-15T16:46:31.131Z,100.00
2023-04-15T16:48:58.334Z,100.00
2023-04-15T16:51:30.541Z,100.00
2023-04-15T16:53:57.707Z,100.00
2023-04-15T16:56:24.848Z,100.00
2023-04-15T16:58:51.888Z,100.00
2023-04-15T17:01:23.169Z,100.00
2023-04-15T17:03:50.470Z,100.00
2023-04-15T17:06:17.944Z,100.00
2023-04-15T17:08:45.038Z,100.00
2023-04-15T17:11:12.525Z,100.00
2023-04-15T17:13:39.546Z,100.00
2023-04-15T17:16:07.962Z,100.00
2023-04-15T17:18:34.998Z,100.00
2023-04-15T17:21:02.226Z,100.00
2023-04-15T17:23:29.681Z,100.00
2023-04-15T17:25:56.695Z,100.00
2023-04-15T17:28:23.738Z,100.00
2023-04-15T17:30:50.828Z,100.00
2023-04-15T17:33:55.952Z,100.00
2023-04-15T17:36:05.383Z,100.00
2023-04-15T17:38:32.368Z,100.00
2023-04-15T17:40:59.426Z,100.00
2023-04-15T17:43:26.466Z,100.00
2023-04-15T17:45:54.689Z,100.00
2023-04-15T17:48:21.902Z,100.00
2023-04-15T17:50:50.443Z,100.00
2023-04-15T17:53:19.078Z,100.00
2023-04-15T17:55:46.577Z,100.00
2023-04-15T17:58:13.620Z,100.00
2023-04-15T18:00:40.859Z,100.00
2023-04-15T18:03:08.196Z,100.00
2023-04-15T18:05:35.456Z,100.00
2023-04-15T18:08:02.515Z,100.00
2023-04-15T18:10:35.553Z,100.00
2023-04-15T18:13:03.527Z,100.00
2023-04-15T18:15:31.381Z,100.00
2023-04-15T18:18:05.637Z,100.00
2023-04-15T18:20:33.609Z,100.00
2023-04-15T18:23:00.700Z,100.00
2023-04-15T18:25:27.676Z,100.00
2023-04-15T18:27:55.225Z,100.00
2023-04-15T18:30:22.546Z,100.00
2023-04-15T18:32:49.595Z,100.00
2023-04-15T18:35:17.287Z,100.00
2023-04-15T18:37:44.290Z,100.00
2023-04-15T18:40:11.773Z,100.00
2023-04-15T18:42:38.804Z,100.00
2023-04-15T18:45:06.379Z,100.00
2023-04-15T18:47:33.436Z,100.00
2023-04-15T18:50:00.778Z,100.00
2023-04-15T18:52:27.735Z,100.00
2023-04-15T18:54:54.788Z,100.00
2023-04-15T18:57:28.652Z,100.00
2023-04-15T19:00:00.166Z,100.00
2023-04-15T19:02:27.250Z,100.00
2023-04-15T19:04:54.261Z,100.00
2023-04-15T19:07:22.255Z,100.00
2023-04-15T19:09:49.250Z,100.00
2023-04-15T19:12:16.290Z,100.00
2023-04-15T19:14:43.342Z,100.00
2023-04-15T19:17:10.344Z,100.00
2023-04-15T19:19:37.402Z,100.00
2023-04-15T19:22:04.716Z,100.00
2023-04-15T19:24:33.103Z,100.00
2023-04-15T19:27:01.581Z,100.00
2023-04-15T19:29:28.980Z,100.00
2023-04-15T19:31:56.169Z,100.00
2023-04-15T19:34:23.256Z,100.00
2023-04-15T19:36:50.562Z,100.00
2023-04-15T19:39:22.758Z,100.00
2023-04-15T19:41:49.967Z,100.00
2023-04-15T19:44:17.035Z,100.00
2023-04-15T19:46:45.016Z,100.00
2023-04-15T19:49:12.394Z,100.00
2023-04-15T19:51:39.320Z,100.00
2023-04-15T19:54:06.633Z,100.00
2023-04-15T19:56:34.560Z,100.00
2023-04-15T19:59:02.316Z,100.00
2023-04-15T20:01:29.317Z,100.00
2023-04-15T20:03:56.483Z,100.00
2023-04-15T20:06:23.949Z,100.00
2023-04-15T20:08:51.932Z,100.00
2023-04-15T20:11:19.128Z,100.00
2023-04-15T20:13:46.264Z,100.00
2023-04-15T20:16:13.451Z,100.00
2023-04-15T20:18:40.401Z,100.00
2023-04-15T20:21:07.416Z,100.00
2023-04-15T20:23:36.048Z,100.00
2023-04-15T20:26:03.006Z,100.00
2023-04-15T20:28:30.335Z,100.00
2023-04-15T20:30:57.378Z,100.00
2023-04-15T20:33:25.833Z,100.00
2023-04-15T20:35:53.596Z,100.00
2023-04-15T20:38:21.945Z,100.00
2023-04-15T20:40:48.944Z,100.00
2023-04-15T20:43:15.997Z,100.00
2023-04-15T20:45:42.988Z,100.00
2023-04-15T20:48:10.989Z,100.00
2023-04-15T20:50:38.963Z,100.00
2023-04-15T20:53:06.206Z,100.00
2023-04-15T20:55:33.178Z,100.00
2023-04-15T20:58:00.221Z,100.00
2023-04-15T21:00:27.441Z,100.00
2023-04-15T21:02:54.708Z,100.00
2023-04-15T21:05:21.885Z,100.00
2023-04-15T21:07:48.959Z,100.00
2023-04-15T21:10:16.070Z,100.00
2023-04-15T21:12:43.032Z,100.00
2023-04-15T21:15:10.590Z,100.00
2023-04-15T21:17:37.759Z,100.00
2023-04-15T21:20:10.902Z,100.00
2023-04-15T21:22:37.888Z,100.00
2023-04-15T21:25:05.265Z,100.00
2023-04-15T21:27:32.311Z,100.00
2023-04-15T21:29:59.447Z,100.00
2023-04-15T21:32:27.286Z,100.00
2023-04-15T21:34:54.607Z,100.00
2023-04-15T21:37:21.621Z,100.00
2023-04-15T21:39:48.653Z,100.00
2023-04-15T21:42:15.728Z,100.00
2023-04-15T21:44:42.797Z,100.00
2023-04-15T21:47:09.883Z,100.00
2023-04-15T21:49:37.254Z,100.00
2023-04-15T21:52:04.730Z,100.00
2023-04-15T21:54:33.226Z,100.00
2023-04-15T21:57:02.019Z,100.00
2023-04-15T21:59:29.192Z,100.00
2023-04-15T22:01:56.422Z,100.00
2023-04-15T22:04:24.891Z,100.00
2023-04-15T22:06:52.389Z,100.00
2023-04-15T22:09:19.614Z,100.00
2023-04-15T22:11:47.372Z,100.00
2023-04-15T22:14:15.008Z,100.00
2023-04-15T22:16:42.060Z,100.00
2023-04-15T22:19:09.802Z,100.00
2023-04-15T22:21:36.879Z,100.00
2023-04-15T22:24:33.507Z,100.00
2023-04-15T22:26:51.036Z,100.00
2023-04-15T22:29:17.982Z,100.00
2023-04-15T22:31:45.024Z,100.00
2023-04-15T22:34:14.752Z,100.00
2023-04-15T22:36:41.807Z,100.00
2023-04-15T22:39:08.821Z,100.00
2023-04-15T22:41:35.896Z,100.00
2023-04-15T22:44:02.950Z,100.00
2023-04-15T22:46:30.638Z,100.00
2023-04-15T22:48:57.972Z,100.00
2023-04-15T22:51:28.053Z,100.00
2023-04-15T22:53:55.793Z,100.00
2023-04-15T22:56:23.431Z,100.00
2023-04-15T22:58:50.748Z,100.00
2023-04-15T23:01:18.478Z,100.00
2023-04-15T23:03:56.475Z,100.00
2023-04-15T23:06:31.525Z,100.00
2023-04-15T23:08:58.498Z,100.00
2023-04-15T23:11:25.557Z,100.00
2023-04-15T23:13:53.205Z,100.00
2023-04-15T23:16:20.203Z,100.00
2023-04-15T23:18:47.194Z,100.00
2023-04-15T23:21:14.243Z,100.00
2023-04-15T23:23:41.183Z,100.00
2023-04-15T23:26:08.168Z,100.00
2023-04-15T23:28:35.354Z,100.00
2023-04-15T23:31:03.942Z,100.00
2023-04-15T23:33:32.632Z,100.00
2023-04-15T23:35:59.596Z,100.00
2023-04-15T23:38:26.534Z,100.00
2023-04-15T23:40:53.503Z,100.00
2023-04-15T23:43:20.454Z,100.00
2023-04-15T23:45:47.534Z,100.00
2023-04-15T23:48:14.582Z,100.00
2023-04-15T23:50:41.566Z,100.00
2023-04-15T23:53:08.514Z,100.00
2023-04-15T23:55:35.582Z,100.00
2023-04-15T23:58:02.540Z,100.00
